sensor_id;sensor_type;location;lat;lon;timestamp;P1;durP1;ratioP1;P2;durP2;ratioP2
75665;SDS011;64263;49.492;11.056;2023-07-29T00:02:07;3.40;;;1.40;;
75665;SDS011;64263;49.492;11.056;2023-07-29T00:04:33;6.20;;;1.70;;
75665;SDS011;64263;49.492;11.056;2023-07-29T00:06:58;4.28;;;1.48;;
75665;SDS011;64263;49.492;11.056;2023-07-29T00:09:24;3.75;;;1.50;;
75665;SDS011;64263;49.492;11.056;2023-07-29T00:11:49;4.32;;;1.52;;
75665;SDS011;64263;49.492;11.056;2023-07-29T00:14:15;4.07;;;1.67;;
75665;SDS011;64263;49.492;11.056;2023-07-29T00:16:40;6.03;;;1.77;;
75665;SDS011;64263;49.492;11.056;2023-07-29T00:19:05;10.45;;;1.85;;
75665;SDS011;64263;49.492;11.056;2023-07-29T00:21:31;5.45;;;1.63;;
75665;SDS011;64263;49.492;11.056;2023-07-29T00:23:56;4.35;;;1.65;;
75665;SDS011;64263;49.492;11.056;2023-07-29T00:26:22;4.20;;;1.80;;
75665;SDS011;64263;49.492;11.056;2023-07-29T00:28:48;5.35;;;1.60;;
75665;SDS011;64263;49.492;11.056;2023-07-29T00:31:13;5.53;;;1.80;;
75665;SDS011;64263;49.492;11.056;2023-07-29T00:33:38;4.20;;;1.67;;
75665;SDS011;64263;49.492;11.056;2023-07-29T00:36:04;4.15;;;1.73;;
75665;SDS011;64263;49.492;11.056;2023-07-29T00:38:29;5.60;;;1.88;;
75665;SDS011;64263;49.492;11.056;2023-07-29T00:40:57;5.85;;;1.90;;
75665;SDS011;64263;49.492;11.056;2023-07-29T00:43:22;5.13;;;1.80;;
75665;SDS011;64263;49.492;11.056;2023-07-29T00:45:48;7.47;;;1.77;;
75665;SDS011;64263;49.492;11.056;2023-07-29T00:48:14;3.80;;;1.70;;
75665;SDS011;64263;49.492;11.056;2023-07-29T00:50:40;4.68;;;1.80;;
75665;SDS011;64263;49.492;11.056;2023-07-29T00:53:05;4.20;;;1.80;;
75665;SDS011;64263;49.492;11.056;2023-07-29T00:55:31;4.43;;;1.90;;
75665;SDS011;64263;49.492;11.056;2023-07-29T00:57:56;4.72;;;1.77;;
75665;SDS011;64263;49.492;11.056;2023-07-29T01:00:22;4.65;;;1.77;;
75665;SDS011;64263;49.492;11.056;2023-07-29T01:02:48;6.00;;;1.83;;
75665;SDS011;64263;49.492;11.056;2023-07-29T01:05:14;5.90;;;2.00;;
75665;SDS011;64263;49.492;11.056;2023-07-29T01:07:51;5.03;;;2.00;;
75665;SDS011;64263;49.492;11.056;2023-07-29T01:13:16;5.68;;;1.75;;
75665;SDS011;64263;49.492;11.056;2023-07-29T01:16:02;6.13;;;1.80;;
75665;SDS011;64263;49.492;11.056;2023-07-29T01:18:35;6.47;;;1.98;;
75665;SDS011;64263;49.492;11.056;2023-07-29T01:21:04;5.22;;;1.98;;
75665;SDS011;64263;49.492;11.056;2023-07-29T01:23:35;6.13;;;2.00;;
75665;SDS011;64263;49.492;11.056;2023-07-29T01:26:02;5.70;;;1.90;;
75665;SDS011;64263;49.492;11.056;2023-07-29T01:28:28;5.65;;;2.42;;
75665;SDS011;64263;49.492;11.056;2023-07-29T01:31:13;5.20;;;2.10;;
75665;SDS011;64263;49.492;11.056;2023-07-29T01:36:18;4.90;;;2.00;;
75665;SDS011;64263;49.492;11.056;2023-07-29T01:38:46;4.78;;;2.08;;
75665;SDS011;64263;49.492;11.056;2023-07-29T01:41:13;5.43;;;2.30;;
75665;SDS011;64263;49.492;11.056;2023-07-29T01:43:40;5.97;;;2.15;;
75665;SDS011;64263;49.492;11.056;2023-07-29T01:46:05;5.30;;;2.20;;
75665;SDS011;64263;49.492;11.056;2023-07-29T01:48:31;6.82;;;2.10;;
75665;SDS011;64263;49.492;11.056;2023-07-29T01:50:56;6.85;;;2.40;;
75665;SDS011;64263;49.492;11.056;2023-07-29T01:53:22;6.18;;;2.10;;
75665;SDS011;64263;49.492;11.056;2023-07-29T01:55:47;8.00;;;2.40;;
75665;SDS011;64263;49.492;11.056;2023-07-29T01:58:13;5.68;;;2.17;;
75665;SDS011;64263;49.492;11.056;2023-07-29T02:00:38;5.60;;;2.05;;
75665;SDS011;64263;49.492;11.056;2023-07-29T02:03:04;6.50;;;2.50;;
75665;SDS011;64263;49.492;11.056;2023-07-29T02:05:29;5.10;;;1.95;;
75665;SDS011;64263;49.492;11.056;2023-07-29T02:07:55;4.30;;;1.90;;
